Time;durP1;ratioP1;P1;durP2;ratioP2;P2;SDS_P1;SDS_P2;PMS_P1;PMS_P2;Temp;Humidity;BMP_temperature;BMP_pressure;BME280_temperature;BME280_humidity;BME280_pressure;Samples;Min_cycle;Max_cycle;Signal;HPM_P1;HPM_P2
2022/05/25 00:01:06;;;;;;;5.20;2.97;;;;;;;10.65;100.00;101179.59;5028853;28;20091;-62
2022/05/25 00:03:34;;;;;;;6.88;2.35;;;;;;;10.67;100.00;101182.19;5010291;28;20060;-63
2022/05/25 00:06:02;;;;;;;7.78;2.92;;;;;;;10.71;100.00;101177.63;5028128;28;20116;-62
2022/05/25 00:08:28;;;;;;;6.13;2.80;;;;;;;10.71;100.00;101181.13;5022378;28;20414;-63
2022/05/25 00:10:53;;;;;;;8.00;2.47;;;;;;;10.69;100.00;101183.00;5010080;28;20029;-63
2022/05/25 00:13:18;;;;;;;6.20;2.65;;;;;;;10.69;100.00;101187.41;5029006;28;20060;-62
2022/05/25 00:15:44;;;;;;;6.72;2.55;;;;;;;10.68;100.00;101183.03;5029776;28;20104;-62
2022/05/25 00:18:09;;;;;;;7.55;2.70;;;;;;;10.66;100.00;101185.75;5028799;28;20037;-62
2022/05/25 00:20:35;;;;;;;7.80;2.70;;;;;;;10.65;100.00;101181.34;5027418;28;20058;-63
2022/05/25 00:23:02;;;;;;;5.85;2.70;;;;;;;10.63;100.00;101177.94;5028487;28;20041;-62
2022/05/25 00:25:33;;;;;;;5.35;2.67;;;;;;;10.66;100.00;101188.38;5008099;28;20512;-62
2022/05/25 00:28:00;;;;;;;7.15;2.65;;;;;;;10.67;100.00;101182.19;5011995;28;20040;-63
2022/05/25 00:30:27;;;;;;;7.13;2.47;;;;;;;10.67;100.00;101189.28;5008356;28;20155;-62
2022/05/25 00:32:56;;;;;;;7.05;2.42;;;;;;;10.65;100.00;101194.59;5013459;28;20095;-62
2022/05/25 00:35:24;;;;;;;7.65;2.50;;;;;;;10.65;100.00;101191.94;5013491;28;20480;-63
2022/05/25 00:37:49;;;;;;;6.90;2.47;;;;;;;10.63;100.00;101192.03;5023665;28;20061;-62
2022/05/25 00:40:21;;;;;;;8.10;2.50;;;;;;;10.61;100.00;101185.94;4986066;28;20101;-63
2022/05/25 00:42:46;;;;;;;;;;;;;;;10.60;100.00;101196.56;5026357;28;20400;-62
2022/05/25 00:45:13;;;;;;;8.02;2.63;;;;;;;10.58;100.00;101193.13;5029900;28;19913;-62
2022/05/25 00:47:41;;;;;;;4.60;2.42;;;;;;;10.55;100.00;101199.41;5027054;28;20128;-62
2022/05/25 00:50:09;;;;;;;6.70;2.50;;;;;;;10.53;100.00;101193.31;5024925;28;20060;-62
2022/05/25 00:52:34;;;;;;;4.78;2.20;;;;;;;10.52;100.00;101207.47;5030413;28;20045;-63
2022/05/25 00:55:04;;;;;;;6.82;2.50;;;;;;;10.49;100.00;101204.94;5028473;28;20033;-62
2022/05/25 00:57:32;;;;;;;4.45;2.40;;;;;;;10.47;100.00;101205.00;5029625;28;20025;-62
2022/05/25 01:00:30;;;;;;;4.55;2.50;;;;;;;10.43;100.00;101213.97;5029679;28;20044;-62
2022/05/25 01:03:08;;;;;;;5.90;2.53;;;;;;;10.43;100.00;101216.63;5013073;28;20061;-62
2022/05/25 01:05:42;;;;;;;6.40;2.70;;;;;;;10.38;100.00;101223.88;5032065;28;20034;-62
2022/05/25 01:08:26;;;;;;;4.55;2.47;;;;;;;10.39;100.00;101216.81;5022964;28;20021;-62
2022/05/25 01:11:04;;;;;;;6.88;3.10;;;;;;;10.35;100.00;101207.25;5031789;28;20029;-63
2022/05/25 01:14:03;;;;;;;7.53;3.08;;;;;;;10.35;100.00;101210.72;5012308;28;20029;-62
2022/05/25 01:16:45;;;;;;;7.80;3.42;;;;;;;10.35;100.00;101212.53;5011649;28;20045;-62
2022/05/25 01:19:45;;;;;;;9.02;3.20;;;;;;;10.32;100.00;101208.22;5016472;28;20491;-63
2022/05/25 01:22:13;;;;;;;8.35;3.40;;;;;;;10.33;100.00;101204.63;5029890;28;20041;-62
2022/05/25 01:25:02;;;;;;;8.13;3.83;;;;;;;10.31;100.00;101217.91;5024773;28;20086;-63
2022/05/25 01:27:37;;;;;;;9.75;3.58;;;;;;;10.31;100.00;101212.63;5031950;28;20037;-63
2022/05/25 01:30:07;;;;;;;8.85;3.70;;;;;;;10.29;100.00;101206.56;5022814;28;20025;-63
2022/05/25 01:32:54;;;;;;;10.30;3.85;;;;;;;10.33;100.00;101217.84;5027479;28;20077;-63
2022/05/25 01:35:37;;;;;;;7.70;3.88;;;;;;;10.33;100.00;101217.84;5030644;28;20036;-63
2022/05/25 01:38:11;;;;;;;8.45;3.55;;;;;;;10.32;100.00;101211.72;5035081;28;20033;-63
2022/05/25 01:40:57;;;;;;;11.35;4.10;;;;;;;10.34;100.00;101219.59;5033083;28;20025;-62
2022/05/25 01:43:44;;;;;;;8.63;4.13;;;;;;;10.36;100.00;101220.44;5023377;28;20044;-62
2022/05/25 01:46:15;;;;;;;12.40;4.82;;;;;;;10.34;100.00;101216.94;5024598;28;20029;-62
2022/05/25 01:48:44;;;;;;;8.32;4.53;;;;;;;10.35;100.00;101215.19;5033259;28;20037;-63
2022/05/25 01:51:14;;;;;;;12.80;5.10;;;;;;;10.34;100.00;101222.25;5029864;28;20040;-63
2022/05/25 01:53:43;;;;;;;11.98;5.50;;;;;;;10.36;100.00;101227.50;5033349;28;20072;-63
2022/05/25 01:56:12;;;;;;;16.70;5.60;;;;;;;10.38;100.00;101229.16;5025697;28;20105;-64
2022/05/25 01:58:42;;;;;;;11.43;6.32;;;;;;;10.36;100.00;101230.16;5009123;28;20056;-61
2022/05/25 02:01:09;;;;;;;13.13;5.85;;;;;;;10.37;100.00;101237.19;5024998;28;20033;-63
2022/05/25 02:06:53;;;;;;;12.18;6.28;;;;;;;10.33;100.00;101236.38;5029852;28;20443;-61
2022/05/25 02:09:45;;;;;;;13.88;6.65;;;;;;;10.31;100.00;101235.59;5028543;28;20025;-62
2022/05/25 02:12:25;;;;;;;;;;;;;;;10.26;100.00;101235.75;5017938;28;20303;-63
2022/05/25 02:15:04;;;;;;;15.80;7.55;;;;;;;10.26;100.00;101230.47;5029879;28;19924;-63
2022/05/25 02:17:48;;;;;;;17.90;7.22;;;;;;;10.25;100.00;101230.53;5014010;28;20513;-63
2022/05/25 02:20:52;;;;;;;15.00;8.40;;;;;;;10.23;100.00;101227.06;5030368;28;20021;-62
2022/05/25 02:23:43;;;;;;;20.35;9.63;;;;;;;10.24;100.00;101240.22;5028492;28;20033;-62
2022/05/25 02:26:19;;;;;;;13.88;8.27;;;;;;;10.23;100.00;101233.25;5027524;28;20037;-62
2022/05/25 02:28:55;;;;;;;15.07;9.02;;;;;;;10.23;100.00;101240.31;5001503;28;20132;-63
2022/05/25 02:31:25;;;;;;;18.60;9.60;;;;;;;10.22;100.00;101241.22;5014667;28;20044;-63
2022/05/25 02:33:57;;;;;;;20.63;9.48;;;;;;;10.21;100.00;101245.66;5025202;28;20041;-63
2022/05/25 02:36:24;;;;;;;16.75;9.90;;;;;;;10.22;100.00;101236.81;5029079;28;20535;-63
2022/05/25 02:38:49;;;;;;;23.45;10.48;;;;;;;10.22;100.00;101235.91;5027404;28;20041;-62
2022/05/25 02:41:26;;;;;;;21.88;10.55;;;;;;;10.22;100.00;101239.44;5026922;28;20449;-62
2022/05/25 02:43:52;;;;;;;20.77;11.10;;;;;;;10.19;100.00;101234.25;5031316;28;20084;-63
2022/05/25 02:46:17;;;;;;;19.38;11.90;;;;;;;10.21;100.00;101243.00;5014810;28;20041;-63
2022/05/25 02:48:42;;;;;;;20.05;11.35;;;;;;;10.19;100.00;101233.41;5032292;28;20515;-62
2022/05/25 02:51:08;;;;;;;19.55;11.60;;;;;;;10.16;100.00;101237.88;5032825;28;20037;-62
2022/05/25 02:53:34;;;;;;;23.23;11.00;;;;;;;10.16;100.00;101242.31;5002250;28;20030;-63
2022/05/25 02:56:01;;;;;;;24.25;11.85;;;;;;;10.12;100.00;101240.72;5022478;28;20034;-63
2022/05/25 02:58:27;;;;;;;26.15;12.63;;;;;;;10.11;100.00;101237.19;5026291;28;20064;-63
2022/05/25 03:00:53;;;;;;;24.77;12.20;;;;;;;10.09;100.00;101244.34;5026594;28;20052;-63
2022/05/25 03:03:19;;;;;;;21.33;12.40;;;;;;;10.06;100.00;101247.06;5020287;28;20112;-62
2022/05/25 03:05:44;;;;;;;21.65;12.13;;;;;;;10.06;100.00;101248.88;5028414;28;20434;-62
2022/05/25 03:08:10;;;;;;;24.90;12.45;;;;;;;10.04;100.00;101259.50;5031803;28;20091;-63
2022/05/25 03:10:35;;;;;;;20.10;12.65;;;;;;;10.03;100.00;101263.06;5028385;28;20017;-62
2022/05/25 03:13:02;;;;;;;23.55;12.05;;;;;;;10.04;100.00;101261.28;5012998;28;20045;-63
2022/05/25 03:15:27;;;;;;;24.27;12.13;;;;;;;10.06;100.00;101262.09;5012368;28;20136;-63
2022/05/25 03:17:52;;;;;;;22.67;12.30;;;;;;;10.05;100.00;101265.66;4996997;28;20033;-62
2022/05/25 03:20:18;;;;;;;24.30;12.20;;;;;;;10.07;100.00;101275.25;5010127;28;20485;-63
2022/05/25 03:22:44;;;;;;;22.23;11.98;;;;;;;10.09;100.00;101272.56;5013466;28;20499;-62
2022/05/25 03:25:11;;;;;;;25.75;12.45;;;;;;;10.12;100.00;101272.47;5013108;28;20036;-63
2022/05/25 03:27:37;;;;;;;21.52;12.25;;;;;;;10.15;100.00;101272.34;5032191;28;20041;-62
2022/05/25 03:30:07;;;;;;;21.60;12.30;;;;;;;10.17;100.00;101281.94;5025414;28;20029;-63
2022/05/25 03:32:33;;;;;;;22.27;11.70;;;;;;;10.19;100.00;101279.25;5032141;28;20053;-62
2022/05/25 03:34:59;;;;;;;26.48;11.57;;;;;;;10.20;100.00;101275.69;5030103;28;20040;-63
2022/05/25 03:37:25;;;;;;;21.23;12.27;;;;;;;10.22;100.00;101281.78;5011275;28;20511;-63
2022/05/25 03:39:51;;;;;;;20.77;12.38;;;;;;;10.26;100.00;101286.06;5031020;28;20060;-63
2022/05/25 03:42:18;;;;;;;23.20;12.63;;;;;;;10.31;100.00;101297.34;5028106;28;20034;-63
2022/05/25 03:44:44;;;;;;;28.70;12.30;;;;;;;10.39;100.00;101290.94;5028200;28;20126;-62
2022/05/25 03:47:09;;;;;;;23.73;11.88;;;;;;;10.45;100.00;101285.44;5008046;28;20118;-62
2022/05/25 03:49:35;;;;;;;21.23;11.77;;;;;;;10.50;100.00;101291.41;5022441;28;20033;-62
2022/05/25 03:52:00;;;;;;;20.73;11.32;;;;;;;10.51;100.00;101295.75;5026557;28;20528;-62
2022/05/25 03:54:26;;;;;;;19.02;11.20;;;;;;;10.51;100.00;101290.47;5005525;28;20041;-62
2022/05/25 03:56:52;;;;;;;21.10;11.02;;;;;;;10.51;100.00;101293.13;5025234;28;20032;-64
2022/05/25 03:59:18;;;;;;;19.98;11.73;;;;;;;10.57;100.00;101287.59;5006895;28;20021;-63
2022/05/25 04:01:43;;;;;;;22.05;11.15;;;;;;;10.63;100.00;101292.66;5007057;28;20095;-63
2022/05/25 04:04:09;;;;;;;21.55;10.80;;;;;;;10.65;100.00;101285.53;5011847;28;20039;-63
2022/05/25 04:06:34;;;;;;;20.25;11.18;;;;;;;10.74;100.00;101286.09;5029996;28;20093;-63
2022/05/25 04:09:00;;;;;;;22.58;10.88;;;;;;;10.81;100.00;101279.66;5022824;28;20467;-63
2022/05/25 04:11:25;;;;;;;20.00;11.68;;;;;;;10.95;100.00;101289.72;5027901;28;20125;-63
2022/05/25 04:13:51;;;;;;;22.00;11.52;;;;;;;11.07;100.00;101293.66;5012218;28;20065;-63
2022/05/25 04:16:17;;;;;;;21.17;11.80;;;;;;;11.17;100.00;101291.50;5028188;28;20072;-63
2022/05/25 04:18:42;;;;;;;21.17;11.73;;;;;;;11.27;100.00;101288.41;4978478;28;20029;-63
2022/05/25 04:21:08;;;;;;;21.60;11.23;;;;;;;11.35;100.00;101296.06;5030453;28;20083;-63
2022/05/25 04:23:33;;;;;;;16.83;11.02;;;;;;;11.39;100.00;101295.00;5031614;28;20473;-63
2022/05/25 04:25:58;;;;;;;22.50;11.48;;;;;;;11.45;100.00;101296.53;4998841;28;20038;-63
2022/05/25 04:28:24;;;;;;;20.77;11.15;;;;;;;11.53;100.00;101283.81;5025786;28;20076;-64
2022/05/25 04:30:50;;;;;;;23.35;11.15;;;;;;;11.59;100.00;101285.38;4995028;28;20029;-63
2022/05/25 04:33:16;;;;;;;23.15;10.60;;;;;;;11.63;100.00;101294.91;5026756;28;20087;-64
2022/05/25 04:35:43;;;;;;;20.38;10.95;;;;;;;11.69;100.00;101288.47;5004422;28;20037;-63
2022/05/25 04:38:08;;;;;;;21.40;11.05;;;;;;;11.69;100.00;101286.72;4991268;28;20116;-64
2022/05/25 04:40:40;;;;;;;19.77;11.35;;;;;;;11.69;100.00;101289.34;4997010;28;20202;-63
2022/05/25 04:43:26;;;;;;;16.63;10.55;;;;;;;11.76;100.00;101292.59;5009123;28;20036;-64
2022/05/25 04:45:53;;;;;;;16.90;10.75;;;;;;;11.89;100.00;101292.94;5011874;28;20494;-63
2022/05/25 04:48:23;;;;;;;21.08;9.75;;;;;;;11.93;100.00;101282.13;5010610;28;20500;-63
2022/05/25 04:50:50;;;;;;;16.95;10.65;;;;;;;11.94;100.00;101285.66;5026297;28;20036;-63
2022/05/25 04:53:18;;;;;;;18.90;10.88;;;;;;;11.92;100.00;101271.59;5028335;28;20037;-63
2022/05/25 04:58:30;;;;;;;17.63;10.85;;;;;;;12.05;100.00;101269.28;5032128;28;20117;-62
2022/05/25 05:00:56;;;;;;;21.02;11.43;;;;;;;12.15;100.00;101275.03;5034857;28;20119;-62
2022/05/25 05:03:23;;;;;;;21.15;11.15;;;;;;;12.15;100.00;101270.59;5013233;28;20049;-62
2022/05/25 05:05:49;;;;;;;17.02;10.68;;;;;;;12.13;100.00;101281.31;5033230;28;20060;-62
2022/05/25 05:08:15;;;;;;;19.15;11.10;;;;;;;12.16;100.00;101276.78;5033558;28;20119;-62
2022/05/25 05:10:41;;;;;;;20.40;11.90;;;;;;;12.26;100.00;101278.97;5034043;28;20029;-62
2022/05/25 05:13:07;;;;;;;21.60;12.57;;;;;;;12.37;100.00;101285.59;5034081;28;20030;-63
2022/05/25 05:15:38;;;;;;;20.80;11.57;;;;;;;12.49;100.00;101271.72;5016773;28;20022;-62
2022/05/25 05:18:04;;;;;;;20.30;12.13;;;;;;;12.52;100.00;101276.03;5034850;28;20029;-63
2022/05/25 05:20:30;;;;;;;21.98;11.38;;;;;;;12.50;100.00;101297.34;5015880;28;20045;-63
2022/05/25 05:22:55;;;;;;;16.05;11.23;;;;;;;12.52;100.00;101286.66;5015498;28;20125;-62
2022/05/25 05:25:21;;;;;;;23.20;11.75;;;;;;;12.55;100.00;101295.34;5034160;28;20033;-62
2022/05/25 05:27:46;;;;;;;21.90;11.80;;;;;;;12.63;100.00;101284.38;5031832;28;20473;-62
2022/05/25 05:30:19;;;;;;;25.20;11.90;;;;;;;12.71;100.00;101291.97;5033337;28;20068;-63
2022/05/25 05:32:44;;;;;;;22.27;11.55;;;;;;;12.77;100.00;101284.59;5015354;28;20037;-63
2022/05/25 05:35:10;;;;;;;23.90;12.18;;;;;;;12.85;100.00;101284.25;5013029;28;20045;-64
2022/05/25 05:37:41;;;;;;;21.63;11.60;;;;;;;12.84;100.00;101297.59;5011428;28;20025;-63
2022/05/25 05:40:08;;;;;;;24.10;14.65;;;;;;;12.83;100.00;101293.22;5030759;28;20465;-64
2022/05/25 05:42:40;;;;;;;24.08;14.93;;;;;;;12.88;100.00;101302.69;5032472;28;20026;-62
2022/05/25 05:45:10;;;;;;;24.17;15.13;;;;;;;12.93;100.00;101291.84;5032911;28;20599;-63
2022/05/25 05:47:42;;;;;;;23.88;14.57;;;;;;;13.01;100.00;101300.31;5033494;28;20469;-63
2022/05/25 05:50:08;;;;;;;23.70;13.40;;;;;;;13.19;100.00;101295.91;5016431;28;20060;-63
2022/05/25 05:52:35;;;;;;;23.92;12.63;;;;;;;13.33;100.00;101302.38;5032952;28;20064;-63
2022/05/25 05:55:00;;;;;;;23.08;12.88;;;;;;;13.44;100.00;101302.72;5026405;28;20026;-64
2022/05/25 05:57:27;;;;;;;23.05;12.35;;;;;;;13.50;100.00;101313.03;5025020;28;20060;-61
2022/05/25 05:59:52;;;;;;;19.10;11.93;;;;;;;13.52;100.00;101305.00;5033330;28;20025;-61
2022/05/25 06:02:18;;;;;;;22.30;12.88;;;;;;;13.42;100.00;101310.75;4998712;28;20052;-61
2022/05/25 06:04:43;;;;;;;20.58;13.90;;;;;;;13.42;100.00;101307.25;5015793;28;20472;-61
2022/05/25 06:07:09;;;;;;;21.50;12.75;;;;;;;13.60;100.00;101313.47;5015154;28;20118;-62
2022/05/25 06:09:34;;;;;;;24.63;14.18;;;;;;;13.73;100.00;101319.03;5015333;28;20052;-62
2022/05/25 06:11:59;;;;;;;21.63;14.07;;;;;;;13.87;100.00;101313.84;5032214;28;20029;-62
2022/05/25 06:14:26;;;;;;;18.50;12.88;;;;;;;13.90;100.00;101316.38;4987294;28;20121;-63
2022/05/25 06:19:37;;;;;;;21.30;13.77;;;;;;;14.17;100.00;101323.00;5033165;28;20523;-63
2022/05/25 06:22:09;;;;;;;19.15;13.52;;;;;;;14.12;100.00;101317.03;5033652;28;20041;-63
2022/05/25 06:24:39;;;;;;;23.20;15.32;;;;;;;13.89;100.00;101306.66;5033380;28;20051;-64
2022/05/25 06:27:08;;;;;;;22.73;15.07;;;;;;;13.86;100.00;101325.47;5032818;28;20061;-64
2022/05/25 06:29:35;;;;;;;23.27;15.52;;;;;;;13.86;100.00;101330.78;5033577;28;20095;-63
2022/05/25 06:32:00;;;;;;;22.65;15.07;;;;;;;13.86;100.00;101328.13;4998962;28;20446;-63
2022/05/25 06:34:26;;;;;;;21.95;15.43;;;;;;;13.96;100.00;101330.31;5033234;28;20068;-63
2022/05/25 06:36:51;;;;;;;22.55;15.02;;;;;;;14.04;100.00;101341.41;5011060;28;20402;-63
2022/05/25 06:39:16;;;;;;;20.00;14.52;;;;;;;14.06;100.00;101329.75;5014324;28;20021;-63
2022/05/25 06:41:42;;;;;;;20.50;14.02;;;;;;;14.16;100.00;101339.94;5030050;28;20056;-63
2022/05/25 06:44:07;;;;;;;23.40;14.73;;;;;;;14.17;100.00;101338.97;5014224;28;20036;-63
2022/05/25 06:46:33;;;;;;;20.95;14.95;;;;;;;14.16;100.00;101345.28;5032230;28;20037;-65
2022/05/25 06:48:58;;;;;;;21.40;14.93;;;;;;;14.21;100.00;101349.41;4998649;28;20481;-63
2022/05/25 06:51:26;;;;;;;21.27;15.27;;;;;;;14.21;100.00;101348.56;5032807;28;20033;-64
2022/05/25 06:53:53;;;;;;;23.52;14.55;;;;;;;14.27;100.00;101348.22;5029330;28;20551;-64
2022/05/25 06:56:19;;;;;;;21.77;13.88;;;;;;;14.34;100.00;101346.94;5014958;28;20120;-63
2022/05/25 06:58:45;;;;;;;23.13;14.25;;;;;;;14.50;99.99;101347.03;5032125;28;20029;-63
2022/05/25 07:01:10;;;;;;;22.23;13.75;;;;;;;14.52;98.19;101342.44;5013277;28;20025;-64
2022/05/25 07:03:38;;;;;;;22.27;12.95;;;;;;;14.53;99.01;101359.31;5032752;28;20043;-64
2022/05/25 07:06:05;;;;;;;19.45;13.40;;;;;;;14.74;97.80;101358.19;5032629;28;20018;-61
2022/05/25 07:08:31;;;;;;;18.60;13.85;;;;;;;14.82;96.75;101352.44;5031431;28;20079;-64
2022/05/25 07:10:57;;;;;;;20.88;14.27;;;;;;;14.68;96.20;101357.66;5032673;28;20025;-62
2022/05/25 07:13:22;;;;;;;19.63;13.82;;;;;;;14.61;96.73;101353.56;4998356;28;20440;-62
2022/05/25 07:15:48;;;;;;;22.83;14.13;;;;;;;14.60;96.49;101374.03;5014573;28;20034;-64
2022/05/25 07:18:14;;;;;;;21.15;14.80;;;;;;;14.66;97.45;101363.06;5014113;28;20048;-63
2022/05/25 07:20:40;;;;;;;21.42;14.95;;;;;;;15.13;95.85;101361.41;5031792;28;20413;-62
2022/05/25 07:23:05;;;;;;;19.40;14.52;;;;;;;15.42;92.87;101364.25;5027693;28;20030;-62
2022/05/25 07:25:31;;;;;;;18.38;13.85;;;;;;;15.28;92.33;101359.72;4994752;28;20045;-63
2022/05/25 07:27:56;;;;;;;21.90;13.50;;;;;;;15.15;92.50;101367.50;5012257;28;20025;-64
2022/05/25 07:30:21;;;;;;;21.55;13.65;;;;;;;14.79;94.75;101370.41;5028269;28;20061;-62
2022/05/25 07:32:47;;;;;;;16.88;12.77;;;;;;;14.71;95.30;101376.16;5012469;28;20148;-62
2022/05/25 07:35:15;;;;;;;20.30;13.00;;;;;;;14.79;94.74;101357.09;5025644;28;20116;-63
2022/05/25 07:37:43;;;;;;;17.20;12.20;;;;;;;14.88;92.99;101376.09;5011022;28;20072;-63
2022/05/25 07:40:16;;;;;;;20.25;12.65;;;;;;;15.12;92.42;101374.84;5030633;28;20026;-63
2022/05/25 07:42:45;;;;;;;20.38;12.18;;;;;;;15.21;92.20;101377.00;5032064;28;20039;-64
2022/05/25 07:45:12;;;;;;;19.83;11.93;;;;;;;15.19;93.04;101382.44;5031673;28;20025;-63
2022/05/25 07:47:37;;;;;;;16.92;11.25;;;;;;;15.44;91.37;101377.53;5013748;28;20428;-64
2022/05/25 07:50:04;;;;;;;16.05;9.95;;;;;;;15.57;89.06;101375.84;5031663;28;20025;-64
2022/05/25 07:52:34;;;;;;;12.52;9.48;;;;;;;15.65;88.53;101378.97;5029546;28;20042;-64
2022/05/25 07:55:00;;;;;;;16.67;9.50;;;;;;;15.72;88.60;101382.13;5020767;28;20071;-64
2022/05/25 07:57:25;;;;;;;12.90;8.73;;;;;;;15.96;86.97;101377.19;5011636;28;20449;-62
2022/05/25 07:59:51;;;;;;;13.60;8.88;;;;;;;16.17;86.62;101375.03;5030793;28;20032;-62
2022/05/25 08:05:43;;;;;;;11.45;6.65;;;;;;;16.43;82.77;101374.44;4970007;28;20031;-63
2022/05/25 08:08:16;;;;;;;13.18;5.45;;;;;;;16.48;81.05;101381.22;4953533;28;20471;-63
2022/05/25 08:10:44;;;;;;;11.63;4.68;;;;;;;16.55;78.96;101371.84;4996345;28;20045;-62
2022/05/25 08:13:14;;;;;;;7.78;3.50;;;;;;;16.63;77.76;101375.88;5018562;28;20034;-63
2022/05/25 08:15:42;;;;;;;7.80;3.50;;;;;;;16.73;75.06;101379.69;5015244;28;20025;-63
2022/05/25 08:18:09;;;;;;;9.23;3.67;;;;;;;16.83;75.71;101370.16;5010723;28;20496;-63
2022/05/25 08:20:35;;;;;;;7.25;3.63;;;;;;;16.87;75.51;101373.50;5020352;28;20021;-63
2022/05/25 08:23:04;;;;;;;10.40;3.80;;;;;;;16.76;76.97;101374.16;4981098;28;20056;-63
2022/05/25 08:25:29;;;;;;;9.45;3.30;;;;;;;16.77;77.40;101385.72;5011629;28;20489;-62
2022/05/25 08:27:54;;;;;;;7.38;3.20;;;;;;;16.68;75.82;101379.97;5013698;28;20033;-63
2022/05/25 08:30:20;;;;;;;8.25;3.70;;;;;;;16.44;76.39;101387.69;5011160;28;20469;-63
2022/05/25 08:32:47;;;;;;;8.93;3.05;;;;;;;16.40;76.11;101380.81;5027497;28;20053;-64
2022/05/25 08:35:13;;;;;;;5.35;2.60;;;;;;;16.67;74.97;101367.56;5030329;28;20408;-63
2022/05/25 08:37:39;;;;;;;6.97;2.80;;;;;;;17.14;74.63;101354.00;5030638;28;20037;-63
2022/05/25 08:40:05;;;;;;;9.02;3.00;;;;;;;18.32;70.58;101368.50;5030404;28;20032;-63
2022/05/25 08:42:35;;;;;;;8.90;2.83;;;;;;;19.10;66.26;101366.66;5031131;28;20033;-63
2022/05/25 08:45:01;;;;;;;10.68;2.90;;;;;;;18.87;66.17;101366.44;4996640;28;20029;-63
2022/05/25 08:47:26;;;;;;;10.82;2.88;;;;;;;19.17;66.06;101373.28;5013071;28;20036;-63
2022/05/25 08:49:54;;;;;;;8.90;2.80;;;;;;;20.52;57.80;101371.28;5030352;28;20400;-63
2022/05/25 08:52:31;;;;;;;6.10;2.53;;;;;;;21.11;55.13;101368.38;5004098;28;20033;-62
2022/05/25 08:55:02;;;;;;;4.85;1.85;;;;;;;19.64;48.26;101362.66;5030538;28;20036;-62
2022/05/25 08:57:32;;;;;;;6.57;1.30;;;;;;;18.30;50.26;101376.66;5012810;28;20105;-62
2022/05/25 09:00:09;;;;;;;8.18;1.52;;;;;;;17.22;54.97;101377.59;5030731;28;20096;-64
2022/05/25 09:02:58;;;;;;;5.45;1.52;;;;;;;16.82;54.88;101381.78;5013393;28;20492;-64
2022/05/25 09:05:59;;;;;;;3.88;1.42;;;;;;;16.42;58.23;101386.94;5030670;28;20473;-63
2022/05/25 09:08:46;;;;;;;7.47;1.55;;;;;;;17.76;53.86;101382.97;4921728;28;20100;-62
2022/05/25 09:11:18;;;;;;;8.20;1.90;;;;;;;18.77;52.15;101387.72;5028850;28;20289;-63
2022/05/25 09:14:07;;;;;;;4.10;1.27;;;;;;;18.23;50.86;101378.03;5030685;28;20021;-63
2022/05/25 09:16:36;;;;;;;5.88;1.17;;;;;;;18.01;51.56;101392.06;5028459;28;20041;-64
2022/05/25 09:19:05;;;;;;;5.32;1.50;;;;;;;18.54;51.25;101396.53;5034607;28;20120;-63
2022/05/25 09:21:36;;;;;;;5.20;1.60;;;;;;;19.04;49.53;101399.28;5016752;28;20132;-64
2022/05/25 09:24:03;;;;;;;;;;;;;;;19.79;49.56;101407.19;5034921;28;20033;-62
2022/05/25 09:26:31;;;;;;;6.82;2.00;;;;;;;20.47;47.45;101401.22;5016180;28;19913;-62
2022/05/25 09:29:01;;;;;;;6.22;1.60;;;;;;;21.44;44.28;101406.13;5016486;28;20029;-62
2022/05/25 09:31:31;;;;;;;7.20;1.48;;;;;;;22.15;40.77;101402.06;5033245;28;20052;-63
2022/05/25 09:34:03;;;;;;;6.28;1.60;;;;;;;21.59;40.15;101399.50;5032929;28;20053;-63
2022/05/25 09:36:44;;;;;;;10.38;2.05;;;;;;;21.80;39.10;101390.59;5015801;28;20548;-63
2022/05/25 09:39:21;;;;;;;3.10;1.20;;;;;;;21.50;36.79;101407.47;5015394;28;20033;-63
2022/05/25 09:41:47;;;;;;;4.15;1.30;;;;;;;19.96;41.40;101405.09;5033491;28;20021;-64
2022/05/25 09:44:18;;;;;;;6.18;1.63;;;;;;;19.58;42.08;101388.19;5016450;28;20397;-63
2022/05/25 09:47:05;;;;;;;5.95;1.50;;;;;;;18.82;44.21;101423.13;5016142;28;20079;-63
2022/05/25 09:49:33;;;;;;;4.15;1.50;;;;;;;18.83;46.27;101418.63;5015908;28;20385;-64
2022/05/25 09:52:02;;;;;;;3.10;1.10;;;;;;;19.85;43.85;101422.06;5034138;28;20477;-63
2022/05/25 09:54:40;;;;;;;4.20;1.25;;;;;;;20.10;42.11;101412.13;5033660;28;20030;-64
2022/05/25 09:57:08;;;;;;;6.90;1.40;;;;;;;20.38;41.88;101421.59;5033972;28;20030;-63
2022/05/25 09:59:39;;;;;;;3.63;1.30;;;;;;;19.85;41.44;101397.00;5030460;28;20033;-63
2022/05/25 10:02:43;;;;;;;;;;;;;;;19.49;41.19;101432.69;5018762;28;20120;-62
2022/05/25 10:05:34;;;;;;;2.90;0.93;;;;;;;19.78;41.69;101442.25;4953643;29;19911;-63
2022/05/25 10:08:08;;;;;;;7.30;1.27;;;;;;;19.90;41.53;101433.31;4936334;29;20083;-63
2022/05/25 10:10:43;;;;;;;4.72;1.00;;;;;;;20.22;42.10;101408.50;5002364;28;20034;-63
2022/05/25 10:13:19;;;;;;;8.18;1.23;;;;;;;20.54;42.39;101407.84;5033627;28;20070;-62
2022/05/25 10:15:51;;;;;;;4.65;1.17;;;;;;;20.72;41.65;101442.41;5033281;28;20136;-64
2022/05/25 10:18:32;;;;;;;2.65;1.05;;;;;;;21.66;39.33;101429.47;5033306;28;20060;-64
2022/05/25 10:20:57;;;;;;;4.80;1.33;;;;;;;22.43;38.44;101438.41;5032452;28;20025;-63
2022/05/25 10:23:25;;;;;;;4.72;1.25;;;;;;;23.00;36.34;101437.97;5032911;28;20041;-63
2022/05/25 10:25:54;;;;;;;7.65;1.38;;;;;;;22.72;37.37;101433.16;5032573;28;20037;-63
2022/05/25 10:28:32;;;;;;;3.33;1.20;;;;;;;22.87;37.48;101439.06;5032261;28;20104;-63
2022/05/25 10:36:58;;;;;;;2.20;1.00;;;;;;;21.68;38.39;101421.28;5026981;28;20044;-63
2022/05/25 10:39:30;;;;;;;4.13;1.25;;;;;;;21.07;38.00;101420.72;5030240;28;20044;-63
2022/05/25 10:42:17;;;;;;;5.38;1.17;;;;;;;19.65;41.76;101443.19;5015045;28;20252;-63
2022/05/25 10:44:51;;;;;;;7.70;1.50;;;;;;;19.58;41.19;101447.28;5032854;28;20123;-64
2022/05/25 10:47:22;;;;;;;2.08;1.40;;;;;;;18.62;43.56;101466.56;5031434;28;20021;-63
2022/05/25 10:49:47;;;;;;;7.00;1.40;;;;;;;18.48;45.34;101443.41;5015132;28;20017;-64
2022/05/25 10:52:37;;;;;;;6.70;1.20;;;;;;;18.92;46.04;101465.44;5032722;28;20136;-63
2022/05/25 10:55:05;;;;;;;3.92;1.08;;;;;;;19.11;45.80;101441.69;5015133;28;20033;-64
2022/05/25 10:57:46;;;;;;;4.97;1.08;;;;;;;19.89;43.25;101444.19;4982028;28;20042;-64
2022/05/25 11:00:18;;;;;;;6.70;1.08;;;;;;;20.19;42.69;101443.69;5014551;28;20025;-63
2022/05/25 11:02:59;;;;;;;3.25;1.15;;;;;;;20.61;43.42;101445.88;5032308;28;20500;-64
2022/05/25 11:05:53;;;;;;;4.67;1.20;;;;;;;21.19;41.32;101415.34;5014537;28;20025;-64
2022/05/25 11:08:48;;;;;;;5.45;1.20;;;;;;;21.15;41.28;101432.72;5022848;28;20286;-64
2022/05/25 11:11:31;;;;;;;3.97;1.15;;;;;;;21.15;41.68;101424.66;5031234;28;20031;-63
2022/05/25 11:14:03;;;;;;;4.72;1.30;;;;;;;20.63;42.31;101431.31;5031846;28;20032;-63
2022/05/25 11:16:46;;;;;;;4.65;1.05;;;;;;;20.04;42.08;101428.72;5032044;28;20381;-63
2022/05/25 11:19:17;;;;;;;4.00;1.40;;;;;;;20.03;41.66;101432.41;5024705;28;20128;-64
2022/05/25 11:22:10;;;;;;;3.75;1.20;;;;;;;20.65;41.61;101431.19;5013380;28;20029;-63
2022/05/25 11:24:45;;;;;;;6.07;1.50;;;;;;;20.31;40.82;101444.59;5031522;28;20101;-64
2022/05/25 11:27:40;;;;;;;5.38;1.20;;;;;;;20.50;41.19;101430.59;5030500;28;20025;-63
2022/05/25 11:30:30;;;;;;;5.13;1.42;;;;;;;19.94;41.44;101433.94;5029848;28;20037;-63
2022/05/25 11:33:17;;;;;;;11.32;6.50;;;;;;;20.05;41.73;101436.69;5018651;28;20692;-64
2022/05/25 11:36:14;;;;;;;3.00;1.20;;;;;;;20.09;40.93;101423.84;5031556;28;20112;-64
2022/05/25 11:38:46;;;;;;;4.25;1.35;;;;;;;19.72;41.72;101424.78;5010141;28;20432;-62
2022/05/25 11:41:27;;;;;;;2.38;1.02;;;;;;;20.06;41.27;101416.88;5029315;28;20384;-63
2022/05/25 11:44:13;;;;;;;4.85;1.50;;;;;;;20.43;41.05;101422.09;5032015;28;20033;-62
2022/05/25 11:46:49;;;;;;;4.15;1.10;;;;;;;20.37;40.57;101394.84;5031141;28;20064;-63
2022/05/25 11:49:45;;;;;;;4.35;1.02;;;;;;;20.37;40.22;101409.16;5031957;28;20033;-63